INFORMAÇÕES DO AERODROMO
Icao Aerodromo SBRJ Nome do Aerodromo Santos Dumont Airport Cidade Rio De Janeiro
Código GPS SBRJ Elevação Média 11 ft Tipo de Aerodromo Aeroporto Médio Porte

INFORMAÇÃO DE PISTA
Pista 02L Comprimento da Pista 4134 ft Largura da Pista 98 ft
Elevação da Pista 0 ft Distância de Area de Escape da Pista 0 ft Orientação da Pista 0
Pista 20R Comprimento da Pista 4134 ft Largura da Pista 98 ft
Elevação da Pista 0 ft Distância de Area de Escape da Pista 0 ft Orientação da Pista 0
Pista 02R Comprimento da Pista 4341 ft Largura da Pista 138 ft
Elevação da Pista 0 ft Distância de Area de Escape da Pista 0 ft Orientação da Pista 0
Pista 20L Comprimento da Pista 4341 ft Largura da Pista 138 ft
Elevação da Pista 0 ft Distância de Area de Escape da Pista 0 ft Orientação da Pista 0

FREQUÊNCIAS DO AERODROMO
Tipo APP Nome RIO CON Frequência 119.35 MHZ
Tipo ATIS Nome ATIS Frequência 132.65 MHZ
Tipo CLD Nome TFC Frequência 121.05 MHZ
Tipo GND Nome GND Frequência 121.7 MHZ
Tipo TWR Nome RIO TWR Frequência 118.7 MHZ

INFORMAÇÕES DE NAVEGAÇÃO PRÓXIMO AO AERODROMO
Tipo NDB Nome Paiol Frequência 415 KHZ

Informações de Meteorologia(METAR atual)
METAR DE SBRJ
ADDS - METARS form results

(0950 UTC 26 April 2018)
Data provider http://aviationweather.gov/adds/metars/
 
METAR text: SBRJ 260900Z 10004KT 5000 BR FEW007 BKN013 24/23 Q1017
Conditions at: SBRJ (SANTOS DUMONT/RI, BR) observed 0900 UTC 26 April 2018
Temperature: 24.0°C (75°F)
Dewpoint: 23.0°C (73°F) [RH = 94%]
Pressure (altimeter): 30.03 inches Hg (1017.0 mb)
Winds: from the E (100 degrees) at 5 MPH (4 knots; 2.1 m/s)
Visibility: 3 miles (5 km)
Ceiling: 1300 feet AGL
Clouds: few clouds at 700 feet AGL
broken clouds at 1300 feet AGL
Weather: BR  (mist)

Forecast for: SBRJ (SANTOS DUMONT/RI, BR)
Text: TAF SBRJ 260230Z 2606/2618 33005KT CAVOK TN22/2609Z TX30/2617Z
Forecast period: 0600 to 0800 UTC 26 April 2018
Forecast type: FROM: standard forecast or significant change
Winds: from the NNW (330 degrees) at 6 MPH (5 knots; 2.6 m/s)
Visibility: 6 or more miles (10+ km)
Clouds: not forecast
Weather: no significant weather forecast for this period
Forecast for: SBRJ (SANTOS DUMONT/RI, BR)
Text: TAF SBRJ 260230Z 2606/2618 33005KT CAVOK TN22/2609Z TX30/2617Z
Forecast period: 0600 to 0800 UTC 26 April 2018
Forecast type: FROM: standard forecast or significant change
Winds: from the NNW (330 degrees) at 6 MPH (5 knots; 2.6 m/s)
Visibility: 6 or more miles (10+ km)
Clouds: not forecast
Weather: no significant weather forecast for this period
Forecast for: SBRJ (SANTOS DUMONT/RI, BR)
Text: TAF SBRJ 260230Z 2606/2618 33005KT CAVOK TN22/2609Z TX30/2617Z
Forecast period: 0800 to 1100 UTC 26 April 2018
Forecast type: BECOMING: Conditions expected to become as follows by 1000 UTC 26 April 2018
Winds: from the N (350 degrees) at 6 MPH (5 knots; 2.6 m/s)
Visibility: 4 miles (7 km)
Ceiling: 1200 feet AGL
Clouds: scattered clouds at 600 feet AGL
broken clouds at 1200 feet AGL
Weather: no significant weather forecast for this period
Forecast for: SBRJ (SANTOS DUMONT/RI, BR)
Text: TAF SBRJ 260230Z 2606/2618 33005KT CAVOK TN22/2609Z TX30/2617Z
Forecast period: 0800 to 1100 UTC 26 April 2018
Forecast type: BECOMING: Conditions expected to become as follows by 1000 UTC 26 April 2018
Winds: from the N (350 degrees) at 6 MPH (5 knots; 2.6 m/s)
Visibility: 4 miles (7 km)
Ceiling: 1200 feet AGL
Clouds: scattered clouds at 600 feet AGL
broken clouds at 1200 feet AGL
Weather: no significant weather forecast for this period
Forecast for: SBRJ (SANTOS DUMONT/RI, BR)
Text: TAF SBRJ 260230Z 2606/2618 33005KT CAVOK TN22/2609Z TX30/2617Z
Forecast period: 1100 to 1600 UTC 26 April 2018
Forecast type: BECOMING: Conditions expected to become as follows by 1300 UTC 26 April 2018
Winds: from the NE (40 degrees) at 6 MPH (5 knots; 2.6 m/s)
Visibility: 6 or more miles (10+ km)
Clouds: few clouds at 2500 feet AGL
Weather: no significant weather forecast for this period
Forecast for: SBRJ (SANTOS DUMONT/RI, BR)
Text: TAF SBRJ 260230Z 2606/2618 33005KT CAVOK TN22/2609Z TX30/2617Z
Forecast period: 1100 to 1600 UTC 26 April 2018
Forecast type: BECOMING: Conditions expected to become as follows by 1300 UTC 26 April 2018
Winds: from the NE (40 degrees) at 6 MPH (5 knots; 2.6 m/s)
Visibility: 6 or more miles (10+ km)
Clouds: few clouds at 2500 feet AGL
Weather: no significant weather forecast for this period
Forecast for: SBRJ (SANTOS DUMONT/RI, BR)
Text: TAF SBRJ 260230Z 2606/2618 33005KT CAVOK TN22/2609Z TX30/2617Z
Forecast period: 1600 to 1800 UTC 26 April 2018
Forecast type: BECOMING: Conditions expected to become as follows by 1700 UTC 26 April 2018
Winds: from the SE (140 degrees) at 12 MPH (10 knots; 5.2 m/s)
Visibility: 6 or more miles (10+ km)
Clouds: few clouds at 2500 feet AGL
Weather: no significant weather forecast for this period
Forecast for: SBRJ (SANTOS DUMONT/RI, BR)
Text: TAF SBRJ 260230Z 2606/2618 33005KT CAVOK TN22/2609Z TX30/2617Z
Forecast period: 1600 to 1800 UTC 26 April 2018
Forecast type: BECOMING: Conditions expected to become as follows by 1700 UTC 26 April 2018
Winds: from the SE (140 degrees) at 12 MPH (10 knots; 5.2 m/s)
Visibility: 6 or more miles (10+ km)
Clouds: few clouds at 2500 feet AGL
Weather: no significant weather forecast for this period

MAPA DO AERODROMO


Desenvolvido por Virtual Airlines Manager




Modificado por Servidor Brasil Amigos